Tiempo atmosférico en la estación meteorológica de Andorra, Teruel (762 m.)



Fecha
DESCASC
Temp. máxima en grados centígrados (hora)
DESCASC
Temp. mínima en grados centígrados (hora)
DESCASC
Temp. media en grados centígrados
DESCASC
Racha de viento máxima en m/sg (hora)
DESCASC
Velocidad máxima media en intervalos de 10 minutos(hora)
DESCASC
Precipitaciones diarias en mm
DESCASC
Precipitaciones de 00:00 a 06:00 en mm
DESCASC
Precipitaciones de 06:00 a 12:00 en mm
DESCASC
Precipitaciones de 12:00 a 18:00 en mm
DESCASC
Precipitaciones de 18:00 a 24:00 en mm
DESCASC
13-10-2019 25.4 (13:50) 14.5 (09:00) 19.9 9.44 (08:30) 6.94 (08:30) 0 0 0 0 0
12-10-2019 25.4 (15:30) 16.6 (02:50) 21 11.67 (16:40) 8.06 (14:30) 0 0 0 0 0
10-10-2019 19.3 (15:50) 12.2 (00:00) 15.7 9.17 (02:10) 7.78 (02:00) 0 0 0 0 0
09-10-2019 22.4 (15:40) 13.5 (00:00) 17.9 10.28 (22:20) 7.5 (22:20) 0 0 0 0 0
08-10-2019 25.4 (13:50) 14.7 (00:00) 20 9.44 (00:20) 7.5 (00:10) 0 0 0 0 0
07-10-2019 23.5 (16:40) 11.7 (00:00) 17.6 21.94 (08:00) 16.11 (06:10) 0 0 0 0 0
06-10-2019 22.3 (16:30) 11.8 (00:00) 17 14.17 (23:50) 11.11 (23:50) 0 0 0 0 0
05-10-2019 23.4 (16:00) 11.8 (07:20) 17.6 8.89 (06:20) 7.78 (06:10) 0 0 0 0 0
04-10-2019 24.5 (14:30) 13.9 (00:00) 19.2 11.67 (04:20) 10 (02:40) 0 0 0 0 0
03-10-2019 23.7 (16:50) 10.1 (00:00) 16.9 14.17 (00:10) 10.28 (00:10) 0 0 0 0 0
02-10-2019 19.9 (16:10) 13.1 (00:00) 16.5 20.56 (13:40) 13.61 (16:00) 0 0 0 0 0
01-10-2019 28 (13:40) 17.1 (00:00) 22.6 10.83 (13:50) 7.78 (11:10) 0 0 0 0 0
30-09-2019 26.2 (15:50) 16.6 (00:00) 21.4 9.17 (14:00) 6.67 (15:00) 0 0 0 0 0
29-09-2019 27.1 (13:30) 16.3 (00:00) 21.7 8.89 (13:40) 7.5 (06:50) 0 0 0 0 0
28-09-2019 24.3 (16:50) 13.9 (00:00) 19.1 8.89 (15:00) 6.39 (18:00) 0 0 0 0 0
27-09-2019 25.6 (14:20) 17.3 (00:00) 21.4 8.89 (15:30) 7.22 (02:20) 0 0 0 0 0
26-09-2019 26.3 (14:30) 13.7 (00:00) 20 9.17 (14:40) 6.39 (14:40) 0 0 0 0 0
25-09-2019 22.6 (16:50) 14 (00:00) 18.3 10 (11:30) 7.78 (04:50) 0 0 0 0 0
24-09-2019 29 (17:30) 16.2 (00:00) 22.6 13.89 (11:10) 10.83 (11:10) 0 0 0 0 0
23-09-2019 24.7 (17:10) 12.3 (00:00) 18.5 8.06 (15:00) 5.83 (18:10) 0 0 0 0 0
22-09-2019 23 (15:00) 15.7 (00:00) 19.3 16.39 (16:50) 12.22 (16:50) 0.8 0 0.2 0.6 0
21-09-2019 23.9 (14:20) 14.4 (00:00) 19.1 9.72 (00:20) 6.67 (00:20) 3.4 2.4 1 0 0
20-09-2019 24.4 (15:20) 15.7 (00:00) 20 14.17 (18:20) 8.61 (19:20) 0 0 0 0 0
19-09-2019 24.7 (17:10) 14.8 (00:00) 19.8 9.72 (17:30) 6.94 (17:30) 0 0 0 0 0
18-09-2019 26.5 (15:50) 15.4 (00:00) 20.9 14.72 (17:00) 9.72 (17:00) 7 0 0.4 6 0.6
17-09-2019 27.1 (15:10) 16.5 (00:00) 21.8 24.44 (22:50) 17.22 (22:50) 0 0 0 0 0

Gráficas

Temp. máximas Temp. mínimas Temp. medias Precipitaciones Rachas de viento máximas Velocidades máximas media en intervalos de 10 minutos

Datos horarios

Fecha y hora oficial Temperatura (ºC) Velocidad del viento (km/h) Dirección del viento Racha (km/h) Dirección de racha Precipitación (mm) Presión (hPa) Tendencia (hPa) Humedad (%)
2019-10-16 23:00:00 13.9 10 Oeste 13 Oeste 0 -- -- 47
2019-10-16 22:00:00 15.3 6 Este 8 Este 0 -- -- 44
2019-10-16 21:00:00 15.5 7 Este 16 Este 0 -- -- 43
2019-10-16 20:00:00 15.8 13 Este 19 Este 0 -- -- 42
2019-10-16 19:00:00 17.7 16 Este 21 Este 0 -- -- 37
2019-10-16 18:00:00 18.7 17 Este 24 Este 0 -- -- 35
2019-10-16 17:00:00 18.7 11 Este 24 Este 0 -- -- 35
2019-10-16 16:00:00 19.5 10 Nordeste 22 Este 0 -- -- 33
2019-10-16 15:00:00 19.5 5 Norte 23 Noroeste 0 -- -- 34
2019-10-16 14:00:00 18.8 11 Noroeste 23 Norte 0 -- -- 36
2019-10-16 13:00:00 16.8 5 Noroeste 24 Sudoeste 0 -- -- 38
2019-10-16 12:00:00 16.2 17 Oeste 29 Oeste 0 -- -- 38
2019-10-16 11:00:00 14.7 14 Oeste 21 Oeste 0 -- -- 41
2019-10-16 10:00:00 13.2 13 Oeste 19 Oeste 0 -- -- 44
2019-10-16 09:00:00 10.9 14 Oeste 22 Oeste 0 -- -- 51
2019-10-16 08:00:00 9.8 21 Oeste 31 Sudoeste 0 -- -- 58
2019-10-16 07:00:00 10.3 22 Sudoeste 26 Sudoeste 0 -- -- 57
2019-10-16 06:00:00 10.5 22 Sudoeste 27 Sudoeste 0 -- -- 57
2019-10-16 05:00:00 9.3 7 Sudoeste 13 Sur 0 -- -- 61
2019-10-16 04:00:00 9.6 8 Sudoeste 17 Sudoeste 0 -- -- 60
2019-10-16 03:00:00 9.1 13 Oeste 18 Oeste 0 -- -- 60
2019-10-16 02:00:00 9.6 15 Oeste 18 Oeste 0 -- -- 59
2019-10-16 01:00:00 9.4 16 Oeste 22 Oeste 0 -- -- 58
2019-10-16 00:00:00 10.1 19 Oeste 21 Oeste 0 -- -- 55
2019-10-15 23:00:00 10.8 17 Oeste 19 Oeste 0 -- -- 52
2019-10-15 22:00:00 12.1 8 Sudoeste 20 Oeste 0 -- -- 47
2019-10-15 21:00:00 12.8 13 Oeste 17 Oeste 0 -- -- 44
2019-10-15 20:00:00 13.6 10 Noroeste 19 Noroeste 0 -- -- 40
2019-10-15 19:00:00 15.6 15 Noroeste 31 Oeste 0 -- -- 36
2019-10-15 18:00:00 16.6 24 Oeste 36 Oeste 0 -- -- 33
2019-10-15 17:00:00 16.9 22 Oeste 44 Oeste 0 -- -- 34
2019-10-15 16:00:00 16.1 31 Oeste 46 Oeste 0 -- -- 36
2019-10-15 15:00:00 15.4 31 Oeste 44 Oeste 0 -- -- 40
2019-10-15 14:00:00 14.4 33 Oeste 48 Oeste 0 -- -- 42
2019-10-15 13:00:00 13.3 33 Oeste 44 Oeste 0 -- -- 45
2019-10-15 12:00:00 12.2 29 Oeste 45 Oeste 0 -- -- 50
2019-10-15 11:00:00 10.7 36 Oeste 66 Oeste 0 -- -- 54
2019-10-15 10:00:00 9 49 Oeste 63 Oeste 0 -- -- 62
2019-10-15 09:00:00 8 39 Oeste 59 Oeste 0 -- -- 67
2019-10-15 08:00:00 8.1 40 Oeste 55 Oeste 0 -- -- 66
2019-10-15 07:00:00 8.1 47 Oeste 64 Oeste 0 -- -- 67
2019-10-15 06:00:00 8.3 35 Oeste 73 Oeste 0 -- -- 64
2019-10-15 05:00:00 8.9 56 Oeste 74 Oeste 0 -- -- 62
2019-10-15 04:00:00 9.8 35 Oeste 55 Oeste 0 -- -- 66
2019-10-15 03:00:00 10.7 42 Oeste 58 Oeste 0 -- -- 65
2019-10-15 02:00:00 11.7 40 Sudoeste 53 Sudoeste 0 -- -- 62
2019-10-15 01:00:00 12.5 44 Oeste 56 Oeste 0 -- -- 62
2019-10-15 00:00:00 12.1 38 Oeste 60 Oeste 0 -- -- 65
2019-10-14 23:00:00 12.4 44 Oeste 68 Oeste 0 -- -- 63
2019-10-14 22:00:00 16.5 15 Oeste 24 Oeste 0 -- -- 60
2019-10-14 21:00:00 17.8 21 Oeste 26 Oeste 0 -- -- 58
2019-10-14 20:00:00 18.6 19 Sudoeste 38 Sudoeste 0 -- -- 58
2019-10-14 19:00:00 18.3 28 Oeste 41 Oeste 0 -- -- 64
2019-10-14 18:00:00 22 30 Sur 50 Sur 0 -- -- 46
2019-10-14 17:00:00 22.4 22 Sur 38 Sur 0 -- -- 45
2019-10-14 16:00:00 20.5 12 Este 34 Sur 0 -- -- 49
2019-10-14 15:00:00 19 22 Sur 66 Sudoeste 0 -- -- 53
2019-10-14 14:00:00 16.2 64 Sudoeste 93 Sudoeste 0 -- -- 70
2019-10-14 13:00:00 20.9 43 Sudoeste 77 Sudoeste 0 -- -- 46
2019-10-14 12:00:00 21.6 49 Sudoeste 63 Sudoeste 0 -- -- 44
2019-10-14 11:00:00 20.9 17 Sudoeste 26 Sur 0 -- -- 47
2019-10-14 10:00:00 18.7 12 Este 27 Sudoeste 0 -- -- 60
2019-10-14 09:00:00 19.1 18 Sudoeste 26 Sur 0 -- -- 55
2019-10-14 08:00:00 17.6 11 Sudoeste 17 Sur 0 -- -- 60
2019-10-14 07:00:00 18.7 7 Sur 30 Sudeste 0 -- -- 59
2019-10-14 06:00:00 19.6 14 Sudeste 25 Sudeste 0 -- -- 54
2019-10-14 05:00:00 18.5 17 Sur 22 Sur 0 -- -- 53
2019-10-14 04:00:00 18.7 18 Sur 24 Sur 0 -- -- 52
2019-10-14 03:00:00 18 14 Sur 26 Sudoeste 0 -- -- 57
2019-10-14 02:00:00 18.1 18 Sudoeste 26 Sur 0 -- -- 55
2019-10-14 01:00:00 17.8 23 Sur 26 Sudoeste 0 -- -- 65
2019-10-14 00:00:00 18.2 18 Sur 28 Sur 0 -- -- 70
2019-10-13 23:00:00 19.2 17 Sur 27 Sur 0 -- -- 65
2019-10-13 22:00:00 20.6 22 Sudoeste 29 Sur 0 -- -- 57
2019-10-13 21:00:00 21 15 Sur 26 Sur 0 -- -- 63
2019-10-13 20:00:00 21.8 20 Sur 30 Sudeste 0 -- -- 63
2019-10-13 19:00:00 24.3 17 Sur 27 Sur 0 -- -- 54
2019-10-13 18:00:00 24.7 9 Sudeste 27 Este 0 -- -- 52
2019-10-13 17:00:00 24.6 18 Este 27 Este 0 -- -- 51
2019-10-13 16:00:00 24.9 15 Nordeste 32 Este 0 -- -- 47
2019-10-13 15:00:00 24.7 21 Este 28 Este 0 -- -- 47
2019-10-13 14:00:00 25.2 22 Este 31 Este 0 -- -- 46
2019-10-13 13:00:00 24.6 15 Este 24 Este 0 -- -- 46
2019-10-13 12:00:00 23.6 8 Sur 18 Sur 0 -- -- 45
2019-10-13 11:00:00 21.2 9 Sur 19 Sur 0 -- -- 51
2019-10-13 10:00:00 17.6 18 Sur 24 Sur 0 -- -- 62
2019-10-13 09:00:00 14.5 16 Sudoeste 34 Sur 0 -- -- 77
2019-10-13 08:00:00 14.8 18 Sur 26 Sur 0 -- -- 76
2019-10-13 07:00:00 15.8 20 Sur 30 Sur 0 -- -- 75
2019-10-13 06:00:00 16.2 21 Sur 26 Sur 0 -- -- 73
2019-10-13 05:00:00 15.3 19 Sur 22 Sur 0 -- -- 76
2019-10-13 04:00:00 15.8 12 Sudoeste 19 Sudoeste 0 -- -- 76
2019-10-13 03:00:00 16.3 13 Sudoeste 23 Noroeste 0 -- -- 76
2019-10-13 02:00:00 16.6 16 Oeste 24 Oeste 0 -- -- 74
2019-10-13 01:00:00 17.5 8 Sur 20 Sur 0 -- -- 74
2019-10-13 00:00:00 17.9 19 Sur 28 Sur 0 -- -- 73
2019-10-12 23:00:00 18.6 21 Sur 26 Sur 0 -- -- 72
2019-10-12 22:00:00 19.1 15 Sur 24 Sur 0 -- -- 70
2019-10-12 21:00:00 19.8 18 Sur 26 Sur 0 -- -- 69
2019-10-12 20:00:00 20.7 16 Sur 30 Sur 0 -- -- 65
2019-10-12 19:00:00 21.8 20 Sur 34 Sudeste 0 -- -- 61
2019-10-12 18:00:00 23 22 Sudeste 37 Sur 0 -- -- 56
2019-10-12 17:00:00 24.7 23 Sur 42 Sudeste 0 -- -- 48
2019-10-12 16:00:00 24.9 21 Este 41 Este 0 -- -- 46
2019-10-12 15:00:00 24.6 21 Este 41 Este 0 -- -- 47
2019-10-12 14:00:00 24.5 20 Nordeste 28 Este 0 -- -- 47
2019-10-12 13:00:00 23.2 17 Nordeste 31 Este 0 -- -- 54
2019-10-12 12:00:00 24.3 16 Este 26 Este 0 -- -- 39
2019-10-12 11:00:00 22.1 5 Sudeste 17 Sur 0 -- -- 46
2019-10-12 10:00:00 18.9 9 Sur 13 Sur 0 -- -- 54
2019-10-12 09:00:00 18.5 4 Sur 10 Sudoeste 0 -- -- 54
2019-10-12 08:00:00 17 10 Sur 14 Sur 0 -- -- 66
2019-10-12 07:00:00 18.9 4 Sudeste 16 Sur 0 -- -- 55
2019-10-12 06:00:00 17.6 15 Sur 19 Sur 0 -- -- 64
2019-10-12 05:00:00 16.9 10 Sur 14 Sudoeste 0 -- -- 72
2019-10-12 04:00:00 18.3 7 Sudeste 19 Sur 0 -- -- 65
2019-10-12 03:00:00 16.7 14 Sur 17 Sudoeste 0 -- -- 76
2019-10-12 02:00:00 18.1 12 Sudoeste 18 Sur 0 -- -- 71
2019-10-12 01:00:00 18.6 15 Sur 18 Sur 0 -- -- 70
2019-10-12 00:00:00 18.7 15 Sur 20 Sur 0 -- -- 73
2019-10-11 23:00:00 19.3 17 Sur 21 Sur 0 -- -- 72
2019-10-11 22:00:00 19.4 11 Sudoeste 23 Sur 0 -- -- 72
2019-10-11 21:00:00 21.2 16 Sur 21 Sur 0 -- -- 66
2019-10-11 20:00:00 21.7 7 Este 16 Este 0 -- -- 65
2019-10-11 19:00:00 23.1 11 Nordeste 23 Este 0 -- -- 60
2019-10-11 18:00:00 23.3 18 Este 26 Este 0 -- -- 58
2019-10-11 17:00:00 23.5 20 Este 29 Este 0 -- -- 56
2019-10-11 16:00:00 22.5 20 Este 29 Este 0 -- -- 56
2019-10-11 15:00:00 22.1 20 Este 26 Este 0 -- -- 55
2019-10-11 14:00:00 21.2 18 Este 26 Nordeste 0 -- -- 56
2019-10-11 13:00:00 20.4 12 Nordeste 18 Este 0 -- -- 56
2019-10-11 12:00:00 19.3 13 Nordeste 18 Este 0 -- -- 59
2019-10-11 11:00:00 18.2 9 Este 13 Nordeste 0 -- -- 60
2019-10-11 10:00:00 16.7 3 Este 9 Este 0 -- -- 62
2019-10-11 09:00:00 14.3 5 Este 6 Este 0 -- -- 66
2019-10-11 08:00:00 13.7 4 Sudoeste 8 Sudoeste 0 -- -- 71
2019-10-11 07:00:00 14.2 0 Calma 5 Este 0 -- -- 66
2019-10-11 06:00:00 13.8 3 Oeste 5 Norte 0 -- -- 67
2019-10-11 05:00:00 14.3 4 Norte 7 Norte 0 -- -- 66
2019-10-11 04:00:00 14.8 3 Noroeste 7 Noroeste 0 -- -- 68
2019-10-11 03:00:00 14.6 2 Noroeste 8 Sur 0 -- -- 65
2019-10-11 02:00:00 15 6 Sudoeste 9 Sudoeste 0 -- -- 62
2019-10-11 01:00:00 16.1 7 Sudeste 12 Sur 0 -- -- 62
2019-10-11 00:00:00 16.7 8 Sudeste 14 Este 0 -- -- 57
2019-10-10 23:00:00 16.5 13 Este 17 Este 0 -- -- 57
2019-10-10 22:00:00 15.9 9 Este 14 Este 0 -- -- 57
2019-10-10 21:00:00 16.2 11 Este 15 Nordeste 0 -- -- 56
2019-10-10 20:00:00 16.5 13 Este 19 Este 0 -- -- 54
2019-10-10 19:00:00 17.9 15 Nordeste 23 Este 0 -- -- 51
2019-10-10 18:00:00 18.7 14 Este 26 Este 0 -- -- 50
2019-10-10 17:00:00 19.1 18 Este 28 Este 0 -- -- 48
2019-10-10 16:00:00 19.2 13 Nordeste 23 Nordeste 0 -- -- 47
2019-10-10 15:00:00 18.8 9 Nordeste 21 Nordeste 0 -- -- 47
2019-10-10 14:00:00 17.8 8 Nordeste 22 Nordeste 0 -- -- 49
2019-10-10 13:00:00 16.8 9 Nordeste 20 Nordeste 0 -- -- 52
2019-10-10 12:00:00 15.7 12 Nordeste 19 Nordeste 0 -- -- 54
2019-10-10 11:00:00 15 5 Noroeste 10 Noroeste 0 -- -- 56
2019-10-10 10:00:00 14 8 Noroeste 17 Noroeste 0 -- -- 58
2019-10-10 09:00:00 12.7 10 Oeste 17 Oeste 0 -- -- 62
2019-10-10 08:00:00 12.4 12 Sudoeste 15 Sudoeste 0 -- -- 63
2019-10-10 07:00:00 12.5 13 Oeste 22 Oeste 0 -- -- 63
2019-10-10 06:00:00 12.6 21 Oeste 25 Oeste 0 -- -- 64
2019-10-10 05:00:00 12.5 19 Oeste 25 Oeste 0 -- -- 65
2019-10-10 04:00:00 12.7 19 Oeste 26 Oeste 0 -- -- 64
2019-10-10 03:00:00 12.7 22 Oeste 33 Oeste 0 -- -- 62
2019-10-10 02:00:00 12.7 28 Oeste 33 Oeste 0 -- -- 62
2019-10-10 01:00:00 12.9 24 Oeste 30 Oeste 0 -- -- 64
2019-10-10 00:00:00 13.8 19 Oeste 31 Oeste 0 -- -- 62
2019-10-09 23:00:00 14.3 26 Noroeste 37 Noroeste 0 -- -- 60
2019-10-09 22:00:00 15.2 26 Noroeste 34 Noroeste 0 -- -- 59
2019-10-09 21:00:00 16.1 23 Noroeste 32 Noroeste 0 -- -- 59
2019-10-09 20:00:00 17.4 18 Noroeste 30 Noroeste 0 -- -- 58
2019-10-09 19:00:00 19.3 20 Noroeste 29 Noroeste 0 -- -- 55
2019-10-09 18:00:00 20.7 20 Noroeste 35 Noroeste 0 -- -- 53
2019-10-09 17:00:00 22 19 Noroeste 32 Norte 0 -- -- 51
2019-10-09 16:00:00 22.2 18 Norte 33 Noroeste 0 -- -- 51
2019-10-09 15:00:00 22 18 Norte 31 Noroeste 0 -- -- 53
2019-10-09 14:00:00 21.5 14 Noroeste 33 Noroeste 0 -- -- 55
2019-10-09 13:00:00 20.4 21 Noroeste 33 Noroeste 0 -- -- 58
2019-10-09 12:00:00 19.8 16 Norte 30 Oeste 0 -- -- 61
2019-10-09 11:00:00 17.1 17 Oeste 24 Sudoeste 0 -- -- 71
2019-10-09 10:00:00 15.3 16 Oeste 28 Noroeste 0 -- -- 75
2019-10-09 09:00:00 13.9 15 Oeste 19 Oeste 0 -- -- 72
2019-10-09 08:00:00 13.5 12 Sudoeste 13 Oeste 0 -- -- 72
2019-10-09 07:00:00 14.9 8 Noroeste 11 Noroeste 0 -- -- 87
2019-10-09 06:00:00 15.7 6 Noroeste 17 Noroeste 0 -- -- 85
2019-10-09 05:00:00 16.6 3 Norte 19 Oeste 0 -- -- 54
2019-10-09 04:00:00 16.6 13 Oeste 19 Oeste 0 -- -- 54
2019-10-09 03:00:00 16.6 16 Oeste 23 Oeste 0 -- -- 54
2019-10-09 02:00:00 18.7 15 Oeste 18 Noroeste 0 -- -- 51
2019-10-09 01:00:00 20.3 9 Noroeste 15 Norte 0 -- -- 48
2019-10-09 00:00:00 20.3 6 Noroeste 18 Sudoeste 0 -- -- 51
2019-10-08 23:00:00 20.1 13 Sudoeste 17 Sudoeste 0 -- -- 47
2019-10-08 22:00:00 21.2 6 Sur 11 Sudeste 0 -- -- 44
2019-10-08 21:00:00 21.9 8 Este 13 Este 0 -- -- 44
2019-10-08 20:00:00 22.1 12 Este 13 Este 0 -- -- 42
2019-10-08 19:00:00 23.4 14 Este 20 Nordeste 0 -- -- 38
2019-10-08 18:00:00 23.9 15 Nordeste 25 Nordeste 0 -- -- 39
2019-10-08 17:00:00 24.4 18 Nordeste 28 Este 0 -- -- 35
2019-10-08 16:00:00 24.8 18 Nordeste 29 Nordeste 0 -- -- 28
2019-10-08 15:00:00 25.1 18 Nordeste 28 Nordeste 0 -- -- 25
2019-10-08 14:00:00 25.2 15 Este 21 Nordeste 0 -- -- 27
2019-10-08 13:00:00 25.1 5 Noroeste 12 Sur 0 -- -- 27
2019-10-08 12:00:00 23 4 Sudoeste 12 Oeste 0 -- -- 27
2019-10-08 11:00:00 20.3 10 Oeste 17 Oeste 0 -- -- 26
2019-10-08 10:00:00 17.7 7 Oeste 15 Oeste 0 -- -- 40
2019-10-08 09:00:00 15.6 12 Oeste 18 Oeste 0 -- -- 40
2019-10-08 08:00:00 15.2 14 Oeste 17 Oeste 0 -- -- 42
2019-10-08 07:00:00 16.2 10 Sudoeste 18 Oeste 0 -- -- 40
2019-10-08 06:00:00 16.1 15 Oeste 19 Oeste 0 -- -- 32
2019-10-08 05:00:00 15.5 15 Oeste 26 Oeste 0 -- -- 30
2019-10-08 04:00:00 15.8 22 Oeste 26 Oeste 0 -- -- 30
2019-10-08 03:00:00 16.8 17 Oeste 28 Oeste 0 -- -- 29
2019-10-08 02:00:00 16.5 22 Oeste 29 Oeste 0 -- -- 31
2019-10-08 01:00:00 16.9 22 Oeste 34 Oeste 0 -- -- 31
2019-10-08 00:00:00 17.6 25 Oeste 39 Oeste 0 -- -- 35
2019-10-07 23:00:00 18.3 29 Oeste 48 Oeste 0 -- -- 36
2019-10-07 22:00:00 19.4 27 Oeste 46 Oeste 0 -- -- 43
2019-10-07 21:00:00 19.8 24 Oeste 37 Oeste 0 -- -- 42
2019-10-07 20:00:00 20.3 19 Noroeste 36 Noroeste 0 -- -- 43
2019-10-07 19:00:00 21.9 26 Noroeste 39 Noroeste 0 -- -- 39
2019-10-07 18:00:00 22.9 33 Noroeste 48 Norte 0 -- -- 35
2019-10-07 17:00:00 23.4 28 Noroeste 48 Noroeste 0 -- -- 32
2019-10-07 16:00:00 22.7 30 Noroeste 55 Noroeste 0 -- -- 31
2019-10-07 15:00:00 21.7 40 Noroeste 55 Noroeste 0 -- -- 30
2019-10-07 14:00:00 21 34 Noroeste 53 Noroeste 0 -- -- 28
2019-10-07 13:00:00 20.7 38 Noroeste 54 Noroeste 0 -- -- 29
2019-10-07 12:00:00 19.9 26 Noroeste 45 Oeste 0 -- -- 30
2019-10-07 11:00:00 18 35 Oeste 47 Oeste 0 -- -- 35
2019-10-07 10:00:00 15.6 31 Oeste 54 Oeste 0 -- -- 43
2019-10-07 09:00:00 13.7 41 Oeste 66 Oeste 0 -- -- 53
2019-10-07 08:00:00 12.5 58 Oeste 79 Oeste 0 -- -- 61
2019-10-07 07:00:00 11.9 53 Oeste 71 Oeste 0 -- -- 73
2019-10-07 06:00:00 11.9 58 Oeste 70 Oeste 0 -- -- 72
2019-10-07 05:00:00 11.9 45 Oeste 59 Oeste 0 -- -- 73
2019-10-07 04:00:00 12.1 40 Oeste 52 Oeste 0 -- -- 72
2019-10-07 03:00:00 12.5 35 Oeste 48 Oeste 0 -- -- 74
2019-10-07 02:00:00 13.1 35 Oeste 46 Oeste 0 -- -- 72
2019-10-07 01:00:00 13.4 36 Oeste 53 Oeste 0 -- -- 74
2019-10-07 00:00:00 14.1 39 Oeste 51 Noroeste 0 -- -- 73
2019-10-06 23:00:00 15.1 29 Noroeste 41 Noroeste 0 -- -- 69
2019-10-06 22:00:00 15.9 22 Oeste 38 Oeste 0 -- -- 66
2019-10-06 21:00:00 16.7 28 Noroeste 45 Noroeste 0 -- -- 64
2019-10-06 20:00:00 17.4 28 Noroeste 44 Noroeste 0 -- -- 64
2019-10-06 19:00:00 20 26 Noroeste 38 Noroeste 0 -- -- 56
2019-10-06 18:00:00 21.9 17 Noroeste 33 Noroeste 0 -- -- 48
2019-10-06 17:00:00 21.7 27 Noroeste 40 Norte 0 -- -- 47
2019-10-06 16:00:00 21.9 29 Noroeste 42 Noroeste 0 -- -- 45
2019-10-06 15:00:00 21.1 21 Noroeste 34 Noroeste 0 -- -- 47
2019-10-06 14:00:00 21.2 18 Noroeste 32 Noroeste 0 -- -- 46
2019-10-06 13:00:00 19.4 20 Oeste 30 Oeste 0 -- -- 52
2019-10-06 12:00:00 17.7 15 Oeste 28 Oeste 0 -- -- 59
2019-10-06 11:00:00 15.6 19 Oeste 34 Oeste 0 -- -- 69
2019-10-06 10:00:00 13.2 24 Oeste 32 Oeste 0 -- -- 82
2019-10-06 09:00:00 12 21 Oeste 24 Oeste 0 -- -- 78
2019-10-06 08:00:00 13.2 6 Noroeste 17 Norte 0 -- -- 76
2019-10-06 07:00:00 14.2 4 Norte 19 Oeste 0 -- -- 68
2019-10-06 06:00:00 14.3 14 Oeste 22 Sudoeste 0 -- -- 69
2019-10-06 05:00:00 14.5 18 Sudoeste 24 Sudoeste 0 -- -- 68
2019-10-06 04:00:00 14.5 17 Oeste 24 Oeste 0 -- -- 68
2019-10-06 03:00:00 15.3 15 Oeste 17 Oeste 0 -- -- 65
2019-10-06 02:00:00 15.9 16 Oeste 18 Oeste 0 -- -- 63
2019-10-06 01:00:00 16.3 17 Oeste 20 Oeste 0 -- -- 62
2019-10-06 00:00:00 17.2 15 Oeste 19 Oeste 0 -- -- 59
2019-10-05 23:00:00 17.9 17 Oeste 20 Oeste 0 -- -- 57
2019-10-05 22:00:00 18.7 11 Sudoeste 13 Sudoeste 0 -- -- 56
2019-10-05 21:00:00 19.8 5 Sudoeste 9 Sur 0 -- -- 52
2019-10-05 20:00:00 20.6 5 Este 11 Nordeste 0 -- -- 50
2019-10-05 19:00:00 21.3 11 Nordeste 23 Nordeste 0 -- -- 49
2019-10-05 18:00:00 22.2 16 Nordeste 29 Nordeste 0 -- -- 47
2019-10-05 17:00:00 23.1 13 Nordeste 26 Nordeste 0 -- -- 46
2019-10-05 16:00:00 23.4 13 Nordeste 28 Nordeste 0 -- -- 46
2019-10-05 15:00:00 22.7 12 Nordeste 24 Norte 0 -- -- 49
2019-10-05 14:00:00 22.1 10 Nordeste 21 Nordeste 0 -- -- 52
2019-10-05 13:00:00 20.9 9 Nordeste 17 Este 0 -- -- 57
2019-10-05 12:00:00 19.5 3 Sudoeste 14 Nordeste 0 -- -- 61
2019-10-05 11:00:00 17.7 5 Sudoeste 12 Nordeste 0 -- -- 69
2019-10-05 10:00:00 14.8 3 Sudoeste 6 Sudoeste 0 -- -- 78
2019-10-05 09:00:00 12.9 4 Oeste 14 Sudoeste 0 -- -- 86
2019-10-05 08:00:00 12 5 Sudoeste 19 Oeste 0 -- -- 88
2019-10-05 07:00:00 12.3 12 Oeste 32 Oeste 0 -- -- 87
2019-10-05 06:00:00 12.6 24 Oeste 29 Oeste 0 -- -- 86
2019-10-05 05:00:00 12.7 21 Oeste 27 Oeste 0 -- -- 85
2019-10-05 04:00:00 13.2 18 Oeste 25 Oeste 0 -- -- 82
2019-10-05 03:00:00 14.8 23 Oeste 32 Oeste 0 -- -- 75
2019-10-05 02:00:00 15.2 18 Oeste 25 Oeste 0 -- -- 75
2019-10-05 01:00:00 16.1 22 Oeste 26 Oeste 0 -- -- 70
2019-10-05 00:00:00 17.8 21 Noroeste 31 Noroeste 0 -- -- 66
2019-10-04 23:00:00 19 19 Noroeste 27 Noroeste 0 -- -- 61
2019-10-04 22:00:00 19.5 18 Noroeste 22 Noroeste 0 -- -- 57
2019-10-04 21:00:00 20.4 9 Norte 11 Norte 0 -- -- 53
2019-10-04 20:00:00 21 7 Nordeste 16 Nordeste 0 -- -- 52
2019-10-04 19:00:00 22.2 10 Nordeste 16 Nordeste 0 -- -- 49
2019-10-04 18:00:00 22.8 12 Nordeste 25 Nordeste 0 -- -- 47
2019-10-04 17:00:00 23.3 16 Nordeste 29 Nordeste 0 -- -- 47
2019-10-04 16:00:00 24.3 14 Norte 33 Nordeste 0 -- -- 42
2019-10-04 15:00:00 24.4 16 Nordeste 30 Nordeste 0 -- -- 40
2019-10-04 14:00:00 24.1 12 Norte 23 Nordeste 0 -- -- 44
2019-10-04 13:00:00 23.1 14 Oeste 27 Oeste 0 -- -- 46
2019-10-04 12:00:00 21.1 17 Oeste 23 Oeste 0 -- -- 54
2019-10-04 11:00:00 19.5 18 Oeste 24 Oeste 0 -- -- 53
2019-10-04 10:00:00 16.9 16 Oeste 24 Oeste 0 -- -- 54
2019-10-04 09:00:00 14.4 18 Oeste 31 Oeste 0 -- -- 60
2019-10-04 08:00:00 14.3 27 Oeste 31 Oeste 0 -- -- 59
2019-10-04 07:00:00 14.4 27 Oeste 32 Oeste 0 -- -- 60
2019-10-04 06:00:00 14.7 26 Oeste 33 Oeste 0 -- -- 61
2019-10-04 05:00:00 14.5 21 Oeste 42 Oeste 0 -- -- 60
2019-10-04 04:00:00 14.4 30 Oeste 34 Oeste 0 -- -- 57
2019-10-04 03:00:00 14.5 32 Oeste 42 Oeste 0 -- -- 50
2019-10-04 02:00:00 14.9 29 Oeste 41 Oeste 0 -- -- 49
2019-10-04 01:00:00 15.1 31 Oeste 39 Oeste 0 -- -- 51
2019-10-04 00:00:00 15.8 23 Oeste 30 Oeste 0 -- -- 52
2019-10-03 23:00:00 17 26 Oeste 32 Oeste 0 -- -- 49
2019-10-03 22:00:00 18.1 21 Oeste 31 Oeste 0 -- -- 46
2019-10-03 21:00:00 19 23 Oeste 30 Oeste 0 -- -- 44
2019-10-03 20:00:00 19.9 21 Noroeste 29 Noroeste 0 -- -- 40
2019-10-03 19:00:00 22.1 14 Norte 27 Norte 0 -- -- 28
2019-10-03 18:00:00 23 12 Norte 33 Noroeste 0 -- -- 22
2019-10-03 17:00:00 23.5 22 Noroeste 35 Noroeste 0 -- -- 22
2019-10-03 16:00:00 22.8 17 Norte 31 Noroeste 0 -- -- 28
2019-10-03 15:00:00 22.8 16 Noroeste 29 Noroeste 0 -- -- 31
2019-10-03 14:00:00 20.9 6 Noroeste 27 Oeste 0 -- -- 38
2019-10-03 13:00:00 19 17 Oeste 31 Oeste 0 -- -- 42
2019-10-03 12:00:00 16.2 21 Oeste 32 Oeste 0 -- -- 52
2019-10-03 11:00:00 13.7 19 Oeste 26 Oeste 0 -- -- 65
2019-10-03 10:00:00 11.5 14 Oeste 23 Oeste 0 -- -- 75
2019-10-03 09:00:00 10.6 17 Oeste 22 Oeste 0 -- -- 78
2019-10-03 08:00:00 10.2 16 Oeste 22 Oeste 0 -- -- 78
2019-10-03 07:00:00 10.6 18 Oeste 26 Oeste 0 -- -- 77
2019-10-03 06:00:00 10.9 20 Oeste 35 Oeste 0 -- -- 77
2019-10-03 05:00:00 11.4 26 Oeste 37 Oeste 0 -- -- 74
2019-10-03 04:00:00 11.4 17 Oeste 33 Oeste 0 -- -- 76
2019-10-03 03:00:00 11.6 30 Oeste 41 Oeste 0 -- -- 77
2019-10-03 02:00:00 11.9 34 Oeste 51 Oeste 0 -- -- 77
2019-10-03 01:00:00 12.4 29 Oeste 51 Oeste 0 -- -- 76
2019-10-03 00:00:00 13.1 36 Oeste 54 Oeste 0 -- -- 73
2019-10-02 23:00:00 13.6 33 Oeste 54 Oeste 0 -- -- 74
2019-10-02 22:00:00 14.5 36 Oeste 56 Noroeste 0 -- -- 67
2019-10-02 21:00:00 15.2 31 Noroeste 58 Noroeste 0 -- -- 62
2019-10-02 20:00:00 16 39 Noroeste 58 Oeste 0 -- -- 59
2019-10-02 19:00:00 17.2 44 Noroeste 61 Noroeste 0 -- -- 54
2019-10-02 18:00:00 19 41 Noroeste 59 Noroeste 0 -- -- 50
2019-10-02 17:00:00 19.5 41 Noroeste 67 Noroeste 0 -- -- 46
2019-10-02 16:00:00 19.6 49 Noroeste 66 Noroeste 0 -- -- 48
2019-10-02 15:00:00 19.5 41 Noroeste 68 Noroeste 0 -- -- 47
2019-10-02 14:00:00 19 45 Noroeste 74 Noroeste 0 -- -- 48
2019-10-02 13:00:00 18.2 40 Noroeste 60 Noroeste 0 -- -- 50
2019-10-02 12:00:00 17.3 48 Noroeste 65 Noroeste 0 -- -- 52
2019-10-02 11:00:00 16.1 44 Noroeste 61 Noroeste 0 -- -- 56
2019-10-02 10:00:00 14.8 44 Noroeste 63 Oeste 0 -- -- 60
2019-10-02 09:00:00 13.7 30 Noroeste 45 Noroeste 0 -- -- 72
2019-10-02 08:00:00 13.4 27 Noroeste 39 Noroeste 0 -- -- 75
2019-10-02 07:00:00 13.6 30 Noroeste 42 Noroeste 0 -- -- 77
2019-10-02 06:00:00 14.2 28 Noroeste 47 Noroeste 0 -- -- 76
2019-10-02 05:00:00 14.7 28 Oeste 44 Oeste 0 -- -- 76
2019-10-02 04:00:00 15 30 Oeste 40 Noroeste 0 -- -- 75
2019-10-02 03:00:00 15.4 24 Oeste 39 Oeste 0 -- -- 74
2019-10-02 02:00:00 15.7 22 Oeste 34 Oeste 0 -- -- 73
2019-10-02 01:00:00 17 26 Noroeste 39 Noroeste 0 -- -- 68
2019-10-02 00:00:00 18.2 24 Noroeste 36 Noroeste 0 -- -- 62
2019-10-01 23:00:00 19.6 15 Oeste 22 Noroeste 0 -- -- 59
2019-10-01 22:00:00 20.6 14 Noroeste 26 Oeste 0 -- -- 57
2019-10-01 21:00:00 21.6 18 Noroeste 31 Noroeste 0 -- -- 52
2019-10-01 20:00:00 22.9 12 Noroeste 31 Norte 0 -- -- 47
2019-10-01 19:00:00 24.8 19 Norte 29 Noroeste 0 -- -- 41
2019-10-01 18:00:00 26.1 15 Norte 32 Norte 0 -- -- 36
2019-10-01 17:00:00 27.2 19 Norte 32 Nordeste 0 -- -- 34
2019-10-01 16:00:00 26.5 18 Norte 35 Nordeste 0 -- -- 33
2019-10-01 15:00:00 26.8 20 Nordeste 34 Nordeste 0 -- -- 35
2019-10-01 14:00:00 28 17 Noroeste 39 Oeste 0 -- -- 30
2019-10-01 13:00:00 27.5 13 Nordeste 34 Oeste 0 -- -- 35
2019-10-01 12:00:00 25.9 22 Oeste 35 Oeste 0 -- -- 26
2019-10-01 11:00:00 24.4 27 Oeste 34 Oeste 0 -- -- 29
2019-10-01 10:00:00 21.8 22 Sudoeste 29 Sudoeste 0 -- -- 35
2019-10-01 09:00:00 18 20 Oeste 26 Oeste 0 -- -- 47
2019-10-01 08:00:00 17.7 16 Sudoeste 22 Oeste 0 -- -- 48
2019-10-01 07:00:00 18.4 9 Sur 20 Sudoeste 0 -- -- 44
2019-10-01 06:00:00 18.7 10 Sudoeste 18 Sudoeste 0 -- -- 47
2019-10-01 05:00:00 18.6 17 Sudoeste 26 Oeste 0 -- -- 47
2019-10-01 04:00:00 18.8 25 Oeste 27 Oeste 0 -- -- 48
2019-10-01 03:00:00 18.7 22 Oeste 25 Oeste 0 -- -- 51
2019-10-01 02:00:00 19.1 22 Oeste 24 Oeste 0 -- -- 49
2019-10-01 01:00:00 19.5 19 Oeste 23 Oeste 0 -- -- 50
2019-10-01 00:00:00 20.5 16 Oeste 19 Oeste 0 -- -- 52
2019-09-30 23:00:00 21.5 12 Sudoeste 16 Sudoeste 0 -- -- 59
2019-09-30 22:00:00 21.6 15 Sur 17 Sur 0 -- -- 65
2019-09-30 21:00:00 23.3 6 Sur 15 Este 0 -- -- 56
2019-09-30 20:00:00 24.1 13 Este 21 Nordeste 0 -- -- 40
2019-09-30 19:00:00 25.4 18 Nordeste 27 Nordeste 0 -- -- 33
2019-09-30 18:00:00 26.1 19 Este 27 Este 0 -- -- 31
2019-09-30 17:00:00 26.1 22 Nordeste 30 Nordeste 0 -- -- 33
2019-09-30 16:00:00 26.2 23 Nordeste 33 Este 0 -- -- 33
2019-09-30 15:00:00 25.8 24 Este 32 Nordeste 0 -- -- 33
2019-09-30 14:00:00 25.7 21 Nordeste 33 Este 0 -- -- 34
2019-09-30 13:00:00 25.2 15 Nordeste 23 Nordeste 0 -- -- 33
2019-09-30 12:00:00 24.7 14 Nordeste 22 Este 0 -- -- 32
2019-09-30 11:00:00 22.9 4 Noroeste 10 Oeste 0 -- -- 33
2019-09-30 10:00:00 19.4 9 Oeste 17 Oeste 0 -- -- 39
2019-09-30 09:00:00 17.1 14 Oeste 17 Oeste 0 -- -- 43
2019-09-30 08:00:00 16.7 15 Oeste 18 Oeste 0 -- -- 43
2019-09-30 07:00:00 17.4 14 Oeste 20 Oeste 0 -- -- 41
2019-09-30 06:00:00 18.6 18 Oeste 24 Oeste 0 -- -- 38
2019-09-30 05:00:00 18.8 19 Oeste 25 Oeste 0 -- -- 39
2019-09-30 04:00:00 18.5 22 Oeste 25 Oeste 0 -- -- 42
2019-09-30 03:00:00 19.2 20 Oeste 24 Oeste 0 -- -- 41
2019-09-30 02:00:00 19.5 16 Oeste 24 Oeste 0 -- -- 44
2019-09-30 01:00:00 20.3 19 Oeste 24 Oeste 0 -- -- 43
2019-09-30 00:00:00 20.5 18 Oeste 21 Oeste 0 -- -- 43
2019-09-29 23:00:00 22.8 8 Sudoeste 12 Sur 0 -- -- 38
2019-09-29 22:00:00 24.4 7 Sur 11 Sur 0 -- -- 35
2019-09-29 21:00:00 24.7 8 Sudeste 12 Este 0 -- -- 35
2019-09-29 20:00:00 24.7 8 Este 17 Nordeste 0 -- -- 35
2019-09-29 19:00:00 26.1 14 Nordeste 18 Nordeste 0 -- -- 32
2019-09-29 18:00:00 26.7 11 Nordeste 19 Nordeste 0 -- -- 32
2019-09-29 17:00:00 27.1 11 Nordeste 24 Nordeste 0 -- -- 33
2019-09-29 16:00:00 26.8 19 Nordeste 29 Nordeste 0 -- -- 36
2019-09-29 15:00:00 26.3 17 Nordeste 28 Nordeste 0 -- -- 39
2019-09-29 14:00:00 25.9 23 Nordeste 32 Nordeste 0 -- -- 47
2019-09-29 13:00:00 26.2 10 Este 22 Este 0 -- -- 39
2019-09-29 12:00:00 24.4 14 Este 19 Nordeste 0 -- -- 49
2019-09-29 11:00:00 23 6 Oeste 15 Oeste 0 -- -- 49
2019-09-29 10:00:00 19.5 17 Oeste 23 Oeste 0 -- -- 62
2019-09-29 09:00:00 17.1 20 Oeste 25 Oeste 0 -- -- 72
2019-09-29 08:00:00 16.3 24 Oeste 30 Oeste 0 -- -- 77
2019-09-29 07:00:00 16.5 27 Oeste 30 Oeste 0 -- -- 78
2019-09-29 06:00:00 16.9 22 Oeste 27 Oeste 0 -- -- 74
2019-09-29 05:00:00 17.8 19 Oeste 24 Oeste 0 -- -- 69
2019-09-29 04:00:00 18 18 Oeste 22 Oeste 0 -- -- 66
2019-09-29 03:00:00 18.3 19 Oeste 24 Sudoeste 0 -- -- 67
2019-09-29 02:00:00 17.8 17 Sudoeste 18 Sudoeste 0 -- -- 75
2019-09-29 01:00:00 18.7 10 Sur 18 Sur 0 -- -- 78
2019-09-29 00:00:00 18.6 12 Sudoeste 18 Sudoeste 0 -- -- 78
2019-09-28 23:00:00 20 13 Sudoeste 18 Sur 0 -- -- 75
2019-09-28 22:00:00 19.9 12 Sur 15 Sur 0 -- -- 76
2019-09-28 21:00:00 21.4 3 Este 18 Nordeste 0 -- -- 70
2019-09-28 20:00:00 22.1 14 Nordeste 25 Nordeste 0 -- -- 67
2019-09-28 19:00:00 23.8 19 Nordeste 27 Este 0 -- -- 55
2019-09-28 18:00:00 24.2 23 Nordeste 32 Nordeste 0 -- -- 49
2019-09-28 17:00:00 24.3 19 Este 29 Este 0 -- -- 46
2019-09-28 16:00:00 23.8 21 Este 29 Este 0 -- -- 47
2019-09-28 15:00:00 23 19 Este 32 Este 0 -- -- 48
2019-09-28 14:00:00 22.5 15 Nordeste 26 Nordeste 0 -- -- 50
2019-09-28 13:00:00 21.5 13 Nordeste 25 Nordeste 0 -- -- 53
2019-09-28 12:00:00 20.7 13 Nordeste 18 Nordeste 0 -- -- 55
2019-09-28 11:00:00 18.9 3 Noroeste 10 Oeste 0 -- -- 61
2019-09-28 10:00:00 16.5 6 Oeste 15 Oeste 0 -- -- 68
2019-09-28 09:00:00 14.3 15 Oeste 18 Oeste 0 -- -- 73
2019-09-28 08:00:00 13.9 15 Oeste 18 Oeste 0 -- -- 73
2019-09-28 07:00:00 14.8 13 Oeste 19 Oeste 0 -- -- 70
2019-09-28 06:00:00 15.1 17 Oeste 20 Oeste 0 -- -- 68
2019-09-28 05:00:00 15.4 19 Oeste 23 Oeste 0 -- -- 65
2019-09-28 04:00:00 15.5 21 Oeste 25 Oeste 0 -- -- 56
2019-09-28 03:00:00 17.9 17 Oeste 20 Oeste 0 -- -- 46
2019-09-28 02:00:00 18.5 13 Oeste 17 Oeste 0 -- -- 45
2019-09-28 01:00:00 19.7 12 Oeste 14 Oeste 0 -- -- 42
2019-09-28 00:00:00 21.1 10 Noroeste 19 Norte 0 -- -- 39
2019-09-27 23:00:00 22.8 8 Nordeste 13 Sudeste 0 -- -- 36
2019-09-27 22:00:00 22.8 5 Este 9 Nordeste 0 -- -- 35
2019-09-27 21:00:00 23.1 8 Nordeste 15 Este 0 -- -- 37
2019-09-27 20:00:00 24.2 12 Este 17 Este 0 -- -- 35
2019-09-27 19:00:00 25.2 9 Nordeste 16 Este 0 -- -- 35
2019-09-27 18:00:00 25.4 7 Sudeste 18 Nordeste 0 -- -- 34
2019-09-27 17:00:00 25.6 7 Nordeste 28 Nordeste 0 -- -- 34
2019-09-27 16:00:00 25.3 16 Nordeste 32 Nordeste 0 -- -- 36
2019-09-27 15:00:00 25.6 12 Nordeste 24 Nordeste 0 -- -- 37
2019-09-27 14:00:00 25.3 14 Norte 28 Nordeste 0 -- -- 40
2019-09-27 13:00:00 24 22 Nordeste 31 Nordeste 0 -- -- 44
2019-09-27 12:00:00 25.2 18 Nordeste 24 Nordeste 0 -- -- 38
2019-09-27 11:00:00 23.1 5 Noroeste 12 Oeste 0 -- -- 42
2019-09-27 10:00:00 20.1 5 Oeste 18 Oeste 0 -- -- 48
2019-09-27 09:00:00 17.5 17 Oeste 23 Oeste 0 -- -- 58
2019-09-27 08:00:00 17.8 15 Oeste 22 Sudoeste 0 -- -- 56
2019-09-27 07:00:00 17.5 21 Oeste 29 Oeste 0 -- -- 57
2019-09-27 06:00:00 17.8 22 Oeste 26 Oeste 0 -- -- 56
2019-09-27 05:00:00 17.8 23 Oeste 26 Oeste 0 -- -- 56
2019-09-27 04:00:00 18.3 24 Oeste 27 Oeste 0 -- -- 55
2019-09-27 03:00:00 18.7 24 Oeste 28 Oeste 0 -- -- 54
2019-09-27 02:00:00 18.6 25 Oeste 28 Oeste 0 -- -- 53
2019-09-27 01:00:00 19.1 15 Oeste 19 Oeste 0 -- -- 53
2019-09-27 00:00:00 19.3 16 Sudoeste 21 Sudoeste 0 -- -- 52
2019-09-26 23:00:00 20.6 14 Sur 19 Sur 0 -- -- 51
2019-09-26 22:00:00 22 12 Este 16 Este 0 -- -- 49
2019-09-26 21:00:00 22.2 14 Este 18 Este 0 -- -- 42
2019-09-26 20:00:00 22.9 14 Este 23 Este 0 -- -- 42
2019-09-26 19:00:00 24.2 19 Este 27 Este 0 -- -- 39
2019-09-26 18:00:00 24.5 19 Nordeste 31 Nordeste 0 -- -- 39
2019-09-26 17:00:00 25.1 21 Nordeste 30 Nordeste 0 -- -- 38
2019-09-26 16:00:00 24.9 20 Este 28 Este 0 -- -- 38
2019-09-26 15:00:00 24.9 14 Nordeste 33 Nordeste 0 -- -- 39
2019-09-26 14:00:00 25.5 10 Oeste 21 Oeste 0 -- -- 36
2019-09-26 13:00:00 23.5 10 Oeste 18 Noroeste 0 -- -- 40
2019-09-26 12:00:00 21.9 9 Oeste 21 Oeste 0 -- -- 43
2019-09-26 11:00:00 20.4 17 Oeste 22 Oeste 0 -- -- 48
2019-09-26 10:00:00 17.7 13 Oeste 18 Oeste 0 -- -- 55
2019-09-26 09:00:00 14.9 14 Oeste 21 Oeste 0 -- -- 63
2019-09-26 08:00:00 14.2 17 Oeste 22 Oeste 0 -- -- 64
2019-09-26 07:00:00 13.9 18 Oeste 23 Oeste 0 -- -- 65
2019-09-26 06:00:00 13.8 17 Oeste 22 Oeste 0 -- -- 66
2019-09-26 05:00:00 14 14 Sudoeste 21 Oeste 0 -- -- 65
2019-09-26 04:00:00 14.3 14 Oeste 17 Oeste 0 -- -- 65
2019-09-26 03:00:00 14.4 14 Oeste 18 Oeste 0 -- -- 65
2019-09-26 02:00:00 14.9 15 Oeste 18 Oeste 0 -- -- 63
2019-09-26 01:00:00 15.2 16 Oeste 18 Oeste 0 -- -- 62
2019-09-26 00:00:00 15.9 12 Oeste 15 Oeste 0 -- -- 59
2019-09-25 23:00:00 16.8 12 Oeste 18 Oeste 0 -- -- 56
2019-09-25 22:00:00 17.6 6 Oeste 12 Oeste 0 -- -- 53
2019-09-25 21:00:00 17.9 8 Noroeste 19 Norte 0 -- -- 52
2019-09-25 20:00:00 18.9 14 Norte 23 Norte 0 -- -- 49
2019-09-25 19:00:00 20.3 18 Norte 28 Noroeste 0 -- -- 47
2019-09-25 18:00:00 21.8 17 Norte 31 Noroeste 0 -- -- 43
2019-09-25 17:00:00 22.2 14 Norte 32 Norte 0 -- -- 43
2019-09-25 16:00:00 22 22 Noroeste 33 Noroeste 0 -- -- 45
2019-09-25 15:00:00 21.9 20 Noroeste 32 Noroeste 0 -- -- 45
2019-09-25 14:00:00 21.3 18 Noroeste 36 Oeste 0 -- -- 46
2019-09-25 13:00:00 20 17 Noroeste 36 Oeste 0 -- -- 53
2019-09-25 12:00:00 18.3 24 Oeste 36 Oeste 0 -- -- 58
2019-09-25 11:00:00 16.8 23 Oeste 32 Oeste 0 -- -- 67
2019-09-25 10:00:00 15.6 23 Oeste 34 Oeste 0 -- -- 73
2019-09-25 09:00:00 14 24 Oeste 32 Oeste 0 -- -- 81
2019-09-25 08:00:00 14.3 24 Oeste 32 Oeste 0 -- -- 81
2019-09-25 07:00:00 15.3 25 Oeste 33 Noroeste 0 -- -- 77
2019-09-25 06:00:00 16.3 19 Noroeste 29 Oeste 0 -- -- 74
2019-09-25 05:00:00 18.1 24 Oeste 32 Oeste 0 -- -- 71
2019-09-25 04:00:00 18.5 24 Oeste 34 Oeste 0 -- -- 70
2019-09-25 03:00:00 19 22 Oeste 31 Oeste 0 -- -- 68
2019-09-25 02:00:00 19.6 25 Oeste 31 Oeste 0 -- -- 66
2019-09-25 01:00:00 19.5 13 Oeste 16 Oeste 0 -- -- 63
2019-09-25 00:00:00 20 9 Sudoeste 15 Sur 0 -- -- 61
2019-09-24 23:00:00 21 9 Noroeste 18 Norte 0 -- -- 58
2019-09-24 22:00:00 21.7 12 Norte 26 Norte 0 -- -- 56
2019-09-24 21:00:00 23.1 18 Norte 34 Norte 0 -- -- 50
2019-09-24 20:00:00 25 18 Norte 27 Norte 0 -- -- 42
2019-09-24 19:00:00 27 7 Sudeste 19 Este 0 -- -- 36
2019-09-24 18:00:00 27.6 11 Este 25 Norte 0 -- -- 35
2019-09-24 17:00:00 28.2 16 Nordeste 28 Nordeste 0 -- -- 31
2019-09-24 16:00:00 27.8 13 Nordeste 42 Noroeste 0 -- -- 30
2019-09-24 15:00:00 28.6 30 Oeste 39 Oeste 0 -- -- 29
2019-09-24 14:00:00 27.1 18 Oeste 33 Oeste 0 -- -- 32
2019-09-24 13:00:00 25.7 20 Oeste 36 Oeste 0 -- -- 33
2019-09-24 12:00:00 23.6 19 Oeste 50 Oeste 0 -- -- 39
2019-09-24 11:00:00 22.1 33 Oeste 47 Oeste 0 -- -- 41
2019-09-24 10:00:00 20.5 28 Sudoeste 35 Sudoeste 0 -- -- 45
2019-09-24 09:00:00 17.7 25 Sudoeste 32 Oeste 0 -- -- 54
2019-09-24 08:00:00 17.3 31 Oeste 38 Oeste 0 -- -- 54
2019-09-24 07:00:00 17 30 Oeste 37 Oeste 0 -- -- 56
2019-09-24 06:00:00 16.3 20 Sudoeste 31 Oeste 0 -- -- 57
2019-09-24 05:00:00 17.7 26 Oeste 38 Oeste 0 -- -- 52
2019-09-24 04:00:00 18.3 29 Oeste 39 Oeste 0 -- -- 51
2019-09-24 03:00:00 17.3 20 Sudoeste 27 Oeste 0 -- -- 55
2019-09-24 02:00:00 17.2 20 Oeste 24 Oeste 0 -- -- 55
2019-09-24 01:00:00 16.9 14 Sudoeste 15 Oeste 0 -- -- 54
2019-09-24 00:00:00 17.4 12 Sudoeste 16 Sudoeste 0 -- -- 53
2019-09-23 23:00:00 18.1 12 Sudoeste 14 Sudoeste 0 -- -- 51
2019-09-23 22:00:00 19.4 5 Sur 6 Sur 0 -- -- 45
2019-09-23 21:00:00 19.6 5 Nordeste 12 Nordeste 0 -- -- 45
2019-09-23 20:00:00 20.2 10 Nordeste 19 Nordeste 0 -- -- 44
2019-09-23 19:00:00 21.2 15 Nordeste 29 Nordeste 0 -- -- 41
2019-09-23 18:00:00 22.8 14 Norte 26 Nordeste 0 -- -- 37
2019-09-23 17:00:00 24.5 9 Noroeste 21 Nordeste 0 -- -- 35
2019-09-23 16:00:00 23.4 7 Nordeste 24 Oeste 0 -- -- 37
2019-09-23 15:00:00 23.4 21 Oeste 29 Oeste 0 -- -- 37
2019-09-23 14:00:00 22.2 12 Oeste 24 Oeste 0 -- -- 40
2019-09-23 13:00:00 20.9 11 Oeste 26 Oeste 0 -- -- 43
2019-09-23 12:00:00 19.8 12 Oeste 23 Oeste 0 -- -- 43
2019-09-23 11:00:00 18.2 18 Oeste 27 Oeste 0 -- -- 54
2019-09-23 10:00:00 15.4 14 Oeste 19 Oeste 0 -- -- 67
2019-09-23 09:00:00 13 15 Oeste 21 Oeste 0 -- -- 70
2019-09-23 08:00:00 12.4 18 Oeste 22 Oeste 0 -- -- 73
2019-09-23 07:00:00 12.7 17 Oeste 21 Oeste 0 -- -- 73
2019-09-23 06:00:00 12.8 14 Oeste 19 Oeste 0 -- -- 75
2019-09-23 05:00:00 13 17 Oeste 21 Oeste 0 -- -- 77
2019-09-23 04:00:00 13.3 15 Oeste 19 Oeste 0 -- -- 76
2019-09-23 03:00:00 13.5 17 Oeste 20 Oeste 0 -- -- 76
2019-09-23 02:00:00 14.1 14 Oeste 17 Oeste 0 -- -- 74
2019-09-23 01:00:00 14.9 14 Oeste 17 Oeste 0 -- -- 71
2019-09-23 00:00:00 15.7 15 Oeste 18 Oeste 0 -- -- 67
2019-09-22 23:00:00 16.6 14 Noroeste 17 Noroeste 0 -- -- 65
2019-09-22 22:00:00 17.2 12 Norte 20 Norte 0 -- -- 64
2019-09-22 21:00:00 18.1 14 Norte 26 Oeste 0 -- -- 64
2019-09-22 20:00:00 19.7 12 Noroeste 21 Noroeste 0 -- -- 56
2019-09-22 19:00:00 20.7 19 Oeste 34 Oeste 0 -- -- 58
2019-09-22 18:00:00 20.3 28 Oeste 44 Sudoeste 0 -- -- 69
2019-09-22 17:00:00 17.9 42 Sudoeste 59 Sudoeste 0.6 -- -- 79
2019-09-22 16:00:00 21.9 23 Nordeste 33 Nordeste 0 -- -- 55
2019-09-22 15:00:00 23 15 Nordeste 28 Nordeste 0 -- -- 56
2019-09-22 14:00:00 22.9 17 Norte 28 Nordeste 0 -- -- 54
2019-09-22 13:00:00 22.3 13 Oeste 36 Sudoeste 0 -- -- 56
2019-09-22 12:00:00 22.3 22 Oeste 32 Oeste 0 -- -- 55
2019-09-22 11:00:00 21.2 12 Sudoeste 22 Oeste 0 -- -- 59
2019-09-22 10:00:00 18.5 14 Sudoeste 26 Sudoeste 0 -- -- 69
2019-09-22 09:00:00 17.9 8 Sur 21 Sur 0 -- -- 71
2019-09-22 08:00:00 18.3 18 Sudoeste 28 Sudoeste 0.2 -- -- 68
2019-09-22 07:00:00 18.5 15 Sudoeste 30 Sudoeste 0 -- -- 69
2019-09-22 06:00:00 18.9 27 Sudoeste 33 Sudoeste 0 -- -- 65
2019-09-22 05:00:00 19.6 27 Sudoeste 33 Sudoeste 0 -- -- 62
2019-09-22 04:00:00 19.1 14 Oeste 18 Oeste 0 -- -- 66
2019-09-22 03:00:00 19 13 Sudoeste 25 Sudoeste 0 -- -- 68
2019-09-22 02:00:00 18.2 14 Sudoeste 19 Sudoeste 0 -- -- 71
2019-09-22 01:00:00 18.5 12 Sudoeste 21 Sudoeste 0 -- -- 70
2019-09-22 00:00:00 19.1 12 Sudoeste 16 Sudoeste 0 -- -- 70
2019-09-21 23:00:00 19.8 12 Sudoeste 18 Sudoeste 0 -- -- 69
2019-09-21 22:00:00 20.1 16 Sur 21 Sur 0 -- -- 73
2019-09-21 21:00:00 21.1 4 Sur 15 Este 0 -- -- 67
2019-09-21 20:00:00 21.3 13 Este 22 Sudeste 0 -- -- 65
2019-09-21 19:00:00 22.2 14 Este 25 Este 0 -- -- 59
2019-09-21 18:00:00 23.1 16 Nordeste 22 Nordeste 0 -- -- 53
2019-09-21 17:00:00 22.9 15 Este 23 Este 0 -- -- 53
2019-09-21 16:00:00 22.8 18 Este 30 Este 0 -- -- 55
2019-09-21 15:00:00 23.1 14 Nordeste 21 Nordeste 0 -- -- 55
2019-09-21 14:00:00 23.2 8 Este 17 Este 0 -- -- 54
2019-09-21 13:00:00 21.7 3 Oeste 11 Oeste 0 -- -- 59
2019-09-21 12:00:00 19.4 5 Oeste 14 Sur 0 -- -- 67
2019-09-21 11:00:00 17.7 12 Este 24 Este 0 -- -- 79
2019-09-21 10:00:00 15.7 8 Este 17 Sur 0.2 -- -- 80
2019-09-21 09:00:00 14.9 15 Sudoeste 21 Sudoeste 0 -- -- 90
2019-09-21 08:00:00 14.6 10 Sur 21 Sudeste 0.2 -- -- 91
2019-09-21 07:00:00 14.8 11 Sur 22 Sur 0.6 -- -- 89
2019-09-21 06:00:00 14.8 14 Sudoeste 23 Sur 1.8 -- -- 90
2019-09-21 05:00:00 15.8 16 Sur 24 Sudeste 0.6 -- -- 85
2019-09-21 04:00:00 16.6 19 Este 28 Sudeste 0 -- -- 86
2019-09-21 03:00:00 17.1 11 Sur 23 Sur 0 -- -- 80
2019-09-21 02:00:00 16.6 18 Este 29 Sudeste 0 -- -- 78
2019-09-21 01:00:00 17.1 18 Este 35 Este 0 -- -- 70
2019-09-21 00:00:00 18 18 Sudeste 36 Sudeste 0 -- -- 66
2019-09-20 23:00:00 18.6 19 Sudeste 38 Sudeste 0 -- -- 76
2019-09-20 22:00:00 19 17 Este 35 Sudeste 0 -- -- 76
2019-09-20 21:00:00 19.2 22 Sudeste 48 Sudeste 0 -- -- 76
2019-09-20 20:00:00 20.1 31 Sudeste 46 Sudeste 0 -- -- 72
2019-09-20 19:00:00 21.1 28 Sudeste 51 Sudeste 0 -- -- 67
2019-09-20 18:00:00 22.4 30 Sudeste 49 Sudeste 0 -- -- 62
2019-09-20 17:00:00 23.4 24 Este 48 Este 0 -- -- 57
2019-09-20 16:00:00 23.5 24 Sudeste 46 Este 0 -- -- 54
2019-09-20 15:00:00 23.4 22 Este 42 Este 0 -- -- 58
2019-09-20 14:00:00 23.6 24 Este 42 Este 0 -- -- 57
2019-09-20 13:00:00 23.1 19 Este 37 Este 0 -- -- 57
2019-09-20 12:00:00 22.7 20 Este 36 Nordeste 0 -- -- 60
2019-09-20 11:00:00 22.1 11 Sur 27 Sur 0 -- -- 60
2019-09-20 10:00:00 19.9 11 Sur 20 Sur 0 -- -- 69
2019-09-20 09:00:00 17.9 7 Sudeste 20 Sur 0 -- -- 75
2019-09-20 08:00:00 17 13 Sur 22 Sur 0 -- -- 74
2019-09-20 07:00:00 15.8 10 Sur 20 Sur 0 -- -- 77
2019-09-20 06:00:00 15.7 15 Sur 18 Sur 0 -- -- 82
2019-09-20 05:00:00 17 4 Sudoeste 9 Sur 0 -- -- 73
2019-09-20 04:00:00 17 7 Oeste 20 Sur 0 -- -- 71
2019-09-20 03:00:00 17.7 17 Sur 22 Sur 0 -- -- 70
2019-09-20 02:00:00 18.8 15 Sur 24 Sudeste 0 -- -- 65
2019-09-20 01:00:00 19.4 12 Sudeste 20 Sudeste 0 -- -- 62
2019-09-20 00:00:00 19 6 Sudoeste 29 Oeste 0 -- -- 63
2019-09-19 23:00:00 19.3 20 Oeste 26 Oeste 0 -- -- 65
2019-09-19 22:00:00 19.4 18 Sudoeste 27 Sudoeste 0 -- -- 63
2019-09-19 21:00:00 20.4 22 Sudoeste 28 Sudoeste 0 -- -- 55
2019-09-19 20:00:00 20.4 18 Sur 21 Sur 0 -- -- 63
2019-09-19 19:00:00 22.1 10 Sudeste 27 Este 0 -- -- 53
2019-09-19 18:00:00 23.3 15 Este 35 Este 0 -- -- 58
2019-09-19 17:00:00 24.5 19 Este 26 Este 0 -- -- 50
2019-09-19 16:00:00 24.1 17 Nordeste 25 Nordeste 0 -- -- 53
2019-09-19 15:00:00 23.1 12 Nordeste 21 Nordeste 0 -- -- 58
2019-09-19 14:00:00 22.1 11 Nordeste 19 Este 0 -- -- 62
2019-09-19 13:00:00 21.4 10 Nordeste 18 Nordeste 0 -- -- 68
2019-09-19 12:00:00 21 6 Este 14 Este 0 -- -- 66
2019-09-19 11:00:00 18.8 0 Calma 5 Sur 0 -- -- 76
2019-09-19 10:00:00 17.4 3 Sudoeste 10 Oeste 0 -- -- 78
2019-09-19 09:00:00 15.4 9 Oeste 15 Oeste 0 -- -- 80
2019-09-19 08:00:00 14.9 14 Oeste 21 Oeste 0 -- -- 80
2019-09-19 07:00:00 14.9 16 Oeste 22 Oeste 0 -- -- 80
2019-09-19 06:00:00 15.5 17 Oeste 20 Oeste 0 -- -- 79
2019-09-19 05:00:00 15.8 15 Sudoeste 19 Sudoeste 0 -- -- 75
2019-09-19 04:00:00 16.4 15 Oeste 18 Oeste 0 -- -- 72
2019-09-19 03:00:00 17.1 14 Oeste 19 Oeste 0 -- -- 69
2019-09-19 02:00:00 17.5 14 Oeste 17 Oeste 0 -- -- 70
2019-09-19 01:00:00 18.2 12 Noroeste 21 Oeste 0 -- -- 68
2019-09-19 00:00:00 18.7 14 Oeste 30 Oeste 0 -- -- 65
2019-09-18 23:00:00 18.4 15 Sudoeste 26 Oeste 0 -- -- 68
2019-09-18 22:00:00 18.9 17 Sudoeste 29 Sudoeste 0.6 -- -- 68
2019-09-18 21:00:00 20 12 Sudoeste 15 Sudoeste 0 -- -- 72
2019-09-18 20:00:00 21 10 Sur 24 Sur 0 -- -- 66
2019-09-18 19:00:00 21 8 Sudoeste 19 Sur 0 -- -- 62
2019-09-18 18:00:00 20.7 9 Sudeste 40 Este 5.6 -- -- 56
2019-09-18 17:00:00 20.1 35 Sur 53 Sur 0.4 -- -- 63
2019-09-18 16:00:00 26.2 14 Nordeste 30 Nordeste 0 -- -- 40
2019-09-18 15:00:00 25.9 14 Este 27 Este 0 -- -- 40
2019-09-18 14:00:00 24.8 12 Este 21 Este 0 -- -- 44
2019-09-18 13:00:00 23 5 Sudeste 12 Oeste 0 -- -- 49
2019-09-18 12:00:00 20.4 3 Noroeste 17 Oeste 0.4 -- -- 60
2019-09-18 11:00:00 17.4 10 Noroeste 32 Oeste 0 -- -- 67
2019-09-18 10:00:00 17.5 10 Oeste 27 Oeste 0 -- -- 62
2019-09-18 09:00:00 15.8 15 Oeste 20 Oeste 0 -- -- 70
2019-09-18 08:00:00 16.3 13 Oeste 19 Oeste 0 -- -- 67
2019-09-18 07:00:00 16 15 Oeste 18 Oeste 0 -- -- 70
2019-09-18 06:00:00 17.6 5 Oeste 15 Norte 0 -- -- 60
2019-09-18 05:00:00 19 9 Norte 17 Oeste 0 -- -- 56
2019-09-18 04:00:00 18 12 Oeste 19 Sur 0 -- -- 57
2019-09-18 03:00:00 18.3 17 Sudoeste 22 Sudoeste 0 -- -- 58
2019-09-18 02:00:00 18.7 23 Sudoeste 28 Sudoeste 0 -- -- 58
2019-09-18 01:00:00 19.2 21 Sudoeste 33 Sudoeste 0 -- -- 58
2019-09-18 00:00:00 19.2 32 Sudoeste 73 Sudoeste 0 -- -- 63
2019-09-17 23:00:00 20.2 57 Sudoeste 88 Sudoeste 0 -- -- 56
2019-09-17 22:00:00 23.4 7 Sudoeste 18 Este 0 -- -- 49
2019-09-17 21:00:00 24.2 13 Este 16 Este 0 -- -- 43